createdAt,value
2022-11-02T00:01:31.682Z,100854.97
2022-11-02T00:03:59.427Z,100840.13
2022-11-02T00:06:27.200Z,100850.75
2022-11-02T00:08:54.924Z,100853.69
2022-11-02T00:11:23.961Z,100835.97
2022-11-02T00:13:51.821Z,100864.72
2022-11-02T00:16:21.930Z,100865.53
2022-11-02T00:18:55.847Z,100860.00
2022-11-02T00:21:26.558Z,100872.28
2022-11-02T00:23:54.915Z,100866.69
2022-11-02T00:26:24.276Z,100865.00
2022-11-02T00:28:52.074Z,100864.03
2022-11-02T00:31:19.782Z,100859.25
2022-11-02T00:33:47.521Z,100851.44
2022-11-02T00:36:15.522Z,100852.44
2022-11-02T00:38:43.245Z,100845.72
2022-11-02T00:41:12.737Z,100850.34
2022-11-02T00:43:41.964Z,100850.50
2022-11-02T00:46:09.706Z,100863.34
2022-11-02T00:48:37.437Z,100850.63
2022-11-02T00:51:05.640Z,100858.31
2022-11-02T00:53:33.580Z,100860.41
2022-11-02T00:56:01.414Z,100856.63
2022-11-02T00:58:29.877Z,100865.88
2022-11-02T01:00:59.665Z,100867.00
2022-11-02T01:03:27.372Z,100866.34
2022-11-02T01:05:55.094Z,100867.75
2022-11-02T01:08:22.918Z,100867.59
2022-11-02T01:10:50.816Z,100869.56
2022-11-02T01:13:18.513Z,100862.16
2022-11-02T01:15:46.372Z,100868.72
2022-11-02T01:18:15.456Z,100876.56
2022-11-02T01:20:43.258Z,100880.75
2022-11-02T01:23:10.913Z,100876.69
2022-11-02T01:25:38.989Z,100877.09
2022-11-02T01:28:06.883Z,100879.47
2022-11-02T01:30:34.868Z,100877.09
2022-11-02T01:33:02.594Z,100875.72
2022-11-02T01:35:31.721Z,100870.13
2022-11-02T01:37:59.501Z,100877.38
2022-11-02T01:40:27.292Z,100867.88
2022-11-02T01:42:54.993Z,100876.28
2022-11-02T01:45:22.745Z,100869.00
2022-11-02T01:47:51.009Z,100874.31
2022-11-02T01:50:21.879Z,100865.97
2022-11-02T01:52:51.021Z,100875.63
2022-11-02T01:55:22.619Z,100867.78
2022-11-02T01:57:55.982Z,100866.50
2022-11-02T02:00:24.226Z,100863.47
2022-11-02T02:02:57.778Z,100867.09
2022-11-02T02:05:26.633Z,100865.28
2022-11-02T02:07:56.940Z,100851.78
2022-11-02T02:10:24.862Z,100862.91
2022-11-02T02:12:52.704Z,100863.75
2022-11-02T02:15:26.351Z,100866.53
2022-11-02T02:18:00.972Z,100871.72
2022-11-02T02:20:48.949Z,100864.88
2022-11-02T02:23:38.668Z,100852.84
2022-11-02T02:26:47.408Z,100862.50
2022-11-02T02:29:22.604Z,100861.53
2022-11-02T02:31:56.735Z,100861.25
2022-11-02T02:34:30.043Z,100868.06
2022-11-02T02:37:02.615Z,100864.31
2022-11-02T02:39:40.731Z,100874.22
2022-11-02T02:42:13.874Z,100874.50
2022-11-02T02:44:47.871Z,100865.00
2022-11-02T02:47:18.727Z,100860.69
2022-11-02T02:49:52.092Z,100871.06
2022-11-02T02:52:23.462Z,100869.38
2022-11-02T02:54:53.409Z,100869.38
2022-11-02T02:57:24.386Z,100874.84
2022-11-02T02:59:55.007Z,100879.72
2022-11-02T03:02:26.045Z,100873.25
2022-11-02T03:04:54.392Z,100875.78
2022-11-02T03:07:29.560Z,100883.03
2022-11-02T03:10:12.677Z,100867.94
2022-11-02T03:12:48.100Z,100885.53
2022-11-02T03:15:28.158Z,100858.16
2022-11-02T03:18:04.633Z,100859.16
2022-11-02T03:20:44.054Z,100884.66
2022-11-02T03:23:20.085Z,100886.34
2022-11-02T03:25:57.761Z,100888.84
2022-11-02T03:28:35.607Z,100887.59
2022-11-02T03:31:11.073Z,100901.28
2022-11-02T03:33:44.773Z,100901.00
2022-11-02T03:36:18.212Z,100908.13
2022-11-02T03:38:51.414Z,100912.31
2022-11-02T03:41:21.798Z,100916.66
2022-11-02T03:43:54.335Z,100921.28
2022-11-02T03:46:24.897Z,100913.59
2022-11-02T03:48:57.048Z,100912.91
2022-11-02T03:51:28.376Z,100923.38
2022-11-02T03:54:00.439Z,100924.91
2022-11-02T03:56:36.780Z,100929.66
2022-11-02T03:59:05.337Z,100911.41
2022-11-02T04:01:40.272Z,100922.84
2022-11-02T04:04:08.214Z,100930.22
2022-11-02T04:06:37.126Z,100932.75
2022-11-02T04:09:06.056Z,100938.34
2022-11-02T04:11:51.430Z,100932.19
2022-11-02T04:14:37.329Z,100935.00
2022-11-02T04:17:27.036Z,100947.31
2022-11-02T04:19:55.595Z,100949.81
2022-11-02T04:22:41.521Z,100950.94
2022-11-02T04:25:19.258Z,100950.38
2022-11-02T04:27:54.708Z,100948.47
2022-11-02T04:30:27.994Z,100974.84
2022-11-02T04:33:15.609Z,100975.53
2022-11-02T04:35:53.252Z,100973.59
2022-11-02T04:38:39.377Z,100983.91
2022-11-02T04:41:23.329Z,100974.16
2022-11-02T04:43:54.327Z,100989.53
2022-11-02T04:46:24.172Z,100989.22
2022-11-02T04:48:54.927Z,100983.38
2022-11-02T04:51:24.616Z,100995.81
2022-11-02T04:53:53.962Z,100994.53
2022-11-02T04:56:22.232Z,100998.75
2022-11-02T04:58:51.103Z,101001.84
2022-11-02T05:01:20.520Z,101005.75
2022-11-02T05:03:49.138Z,101001.69
2022-11-02T05:06:20.243Z,101013.13
2022-11-02T05:08:49.189Z,101014.53
2022-11-02T05:11:17.804Z,101013.56
2022-11-02T05:13:45.806Z,101016.91
2022-11-02T05:16:17.181Z,101023.75
2022-11-02T05:18:45.979Z,101031.31
2022-11-02T05:21:15.416Z,101047.09
2022-11-02T05:23:44.744Z,101045.28
2022-11-02T05:26:13.477Z,101032.84
2022-11-02T05:28:45.153Z,101009.91
2022-11-02T05:31:12.981Z,101037.59
2022-11-02T05:33:41.359Z,101037.88
2022-11-02T05:36:14.185Z,101042.91
2022-11-02T05:38:46.781Z,101048.06
2022-11-02T05:41:14.631Z,101029.91
2022-11-02T05:43:44.108Z,101045.25
2022-11-02T05:46:14.912Z,101054.06
2022-11-02T05:48:42.941Z,101060.78
2022-11-02T05:51:11.195Z,101057.69
2022-11-02T05:53:39.161Z,101070.84
2022-11-02T05:56:10.946Z,101074.19
2022-11-02T05:58:38.843Z,101059.38
2022-11-02T06:01:08.503Z,101072.81
2022-11-02T06:03:37.110Z,101080.06
2022-11-02T06:06:06.806Z,101075.41
2022-11-02T06:08:35.619Z,101082.81
2022-11-02T06:11:06.059Z,101071.22
2022-11-02T06:13:35.383Z,101095.69
2022-11-02T06:16:05.300Z,101100.59
2022-11-02T06:18:33.362Z,101083.63
2022-11-02T06:21:01.566Z,101058.47
2022-11-02T06:23:29.899Z,101112.19
2022-11-02T06:25:59.355Z,101105.91
2022-11-02T06:28:27.830Z,101098.75
2022-11-02T06:30:58.410Z,101123.06
2022-11-02T06:33:26.227Z,101113.88
2022-11-02T06:35:55.306Z,101127.28
2022-11-02T06:38:24.955Z,101128.97
2022-11-02T06:40:57.342Z,101119.97
2022-11-02T06:43:28.253Z,101125.28
2022-11-02T06:45:58.880Z,101142.88
2022-11-02T06:48:34.275Z,101146.53
2022-11-02T06:51:03.045Z,101142.19
2022-11-02T06:53:31.181Z,101148.75
2022-11-02T06:56:00.360Z,101158.78
2022-11-02T06:58:28.646Z,101152.38
2022-11-02T07:01:00.327Z,101162.00
2022-11-02T07:03:28.471Z,101163.81
2022-11-02T07:05:56.473Z,101173.88
2022-11-02T07:08:24.799Z,101187.00
2022-11-02T07:10:52.806Z,101192.88
2022-11-02T07:13:20.541Z,101179.44
2022-11-02T07:15:48.275Z,101205.59
2022-11-02T07:18:17.494Z,101215.53
2022-11-02T07:20:45.185Z,101219.84
2022-11-02T07:23:12.918Z,101218.44
2022-11-02T07:25:41.490Z,101219.56
2022-11-02T07:28:09.981Z,101219.69
2022-11-02T07:30:37.907Z,101223.56
2022-11-02T07:33:05.982Z,101229.78
2022-11-02T07:35:35.244Z,101233.94
2022-11-02T07:38:04.744Z,101203.69
2022-11-02T07:40:42.145Z,101225.81
2022-11-02T07:43:11.796Z,101064.75
2022-11-02T07:45:43.551Z,101246.38
2022-11-02T07:48:14.076Z,101220.19
2022-11-02T07:50:45.410Z,101237.78
2022-11-02T07:53:13.227Z,101266.28
2022-11-02T07:55:46.404Z,101255.69
2022-11-02T07:58:14.684Z,101254.53
2022-11-02T08:00:42.791Z,101281.69
2022-11-02T08:03:12.003Z,101287.13
2022-11-02T08:05:41.442Z,101292.31
2022-11-02T08:08:16.724Z,101286.75
2022-11-02T08:10:46.113Z,101286.63
2022-11-02T08:13:15.685Z,101305.06
2022-11-02T08:15:43.702Z,101262.50
2022-11-02T08:18:15.118Z,101290.31
2022-11-02T08:20:43.234Z,101297.53
2022-11-02T08:23:13.555Z,101307.19
2022-11-02T08:25:47.719Z,101308.03
2022-11-02T08:28:19.002Z,101302.97
2022-11-02T08:30:46.926Z,101305.97
2022-11-02T08:33:17.551Z,101295.72
2022-11-02T08:35:52.126Z,101309.22
2022-11-02T08:38:23.456Z,101317.59
2022-11-02T08:40:51.154Z,101317.75
2022-11-02T08:43:18.885Z,101328.22
2022-11-02T08:48:34.840Z,101338.53
2022-11-02T08:51:02.746Z,101328.50
2022-11-02T08:53:31.863Z,101329.88
2022-11-02T08:55:59.601Z,101335.75
2022-11-02T08:58:27.543Z,101340.97
2022-11-02T09:00:55.889Z,101330.47
2022-11-02T09:03:26.846Z,101332.66
2022-11-02T09:05:58.956Z,101311.56
2022-11-02T09:08:27.735Z,101336.50
2022-11-02T09:11:00.203Z,101329.16
2022-11-02T09:13:28.339Z,101348.19
2022-11-02T09:15:57.551Z,101338.53
2022-11-02T09:18:25.384Z,101345.53
2022-11-02T09:20:53.210Z,101343.75
2022-11-02T09:23:22.027Z,101355.66
2022-11-02T09:25:50.354Z,101346.88
2022-11-02T09:28:19.434Z,101355.69
2022-11-02T09:30:47.181Z,101346.72
2022-11-02T09:33:14.918Z,101289.13
2022-11-02T09:35:45.758Z,101359.66
2022-11-02T09:38:14.071Z,101372.50
2022-11-02T09:40:46.014Z,101369.59
2022-11-02T09:43:31.914Z,101352.66
2022-11-02T09:46:03.455Z,101359.66
2022-11-02T09:48:35.368Z,101381.78
2022-11-02T09:51:07.773Z,101363.09
2022-11-02T09:53:48.700Z,101374.84
2022-11-02T09:56:19.753Z,101371.25
2022-11-02T09:58:54.423Z,101374.59
2022-11-02T10:01:39.892Z,101376.41
2022-11-02T10:04:27.210Z,101373.78
2022-11-02T10:07:04.033Z,101355.16
2022-11-02T10:09:38.609Z,101384.16
2022-11-02T10:12:13.538Z,101389.22
2022-11-02T10:14:54.078Z,101387.28
2022-11-02T10:17:26.100Z,101394.28
2022-11-02T10:19:57.039Z,101385.91
2022-11-02T10:22:28.981Z,101379.03
2022-11-02T10:24:58.763Z,101390.91
2022-11-02T10:27:28.458Z,101381.13
2022-11-02T10:30:02.747Z,101411.09
2022-11-02T10:32:32.541Z,101394.56
2022-11-02T10:35:26.108Z,101383.66
2022-11-02T10:38:04.429Z,101383.78
2022-11-02T10:40:58.516Z,101393.69
2022-11-02T10:43:38.099Z,101393.69
2022-11-02T10:46:30.368Z,101392.69
2022-11-02T10:49:06.642Z,101384.97
2022-11-02T10:51:34.862Z,101403.63
2022-11-02T10:54:02.909Z,101395.34
2022-11-02T10:56:31.904Z,101395.63
2022-11-02T10:59:04.785Z,101401.22
2022-11-02T11:01:33.998Z,101406.88
2022-11-02T11:04:02.895Z,101385.03
2022-11-02T11:06:35.286Z,101396.25
2022-11-02T11:09:07.258Z,101392.00
2022-11-02T11:11:37.213Z,101399.59
2022-11-02T11:19:51.474Z,101406.31
2022-11-02T11:22:28.261Z,101402.81
2022-11-02T11:25:26.785Z,101401.69
2022-11-02T11:27:56.776Z,101411.94
2022-11-02T11:33:20.374Z,101401.41
2022-11-02T11:35:50.986Z,101404.06
2022-11-02T11:38:22.256Z,101390.63
2022-11-02T11:40:54.332Z,101392.88
2022-11-02T11:43:25.821Z,101400.72
2022-11-02T11:46:04.843Z,101407.44
2022-11-02T11:48:39.292Z,101397.09
2022-11-02T11:51:27.471Z,101383.09
2022-11-02T11:54:22.931Z,101378.31
2022-11-02T11:56:52.281Z,101384.47
2022-11-02T11:59:27.016Z,101390.38
2022-11-02T12:01:59.193Z,101371.88
2022-11-02T12:04:48.191Z,101374.13
2022-11-02T12:07:34.335Z,101368.66
2022-11-02T12:10:11.876Z,101365.84
2022-11-02T12:12:55.562Z,101376.28
2022-11-02T12:15:38.146Z,101364.50
2022-11-02T12:18:20.309Z,101362.31
2022-11-02T12:21:02.824Z,101372.94
2022-11-02T12:24:12.504Z,101363.28
2022-11-02T12:26:54.065Z,101364.41
2022-11-02T12:29:57.337Z,101358.00
2022-11-02T12:32:43.716Z,101370.19
2022-11-02T12:35:30.147Z,101366.41
2022-11-02T12:38:20.904Z,101359.69
2022-11-02T12:41:00.709Z,101357.00
2022-11-02T12:43:43.650Z,101357.31
2022-11-02T12:46:27.777Z,101336.03
2022-11-02T12:49:06.942Z,101352.69
2022-11-02T12:51:38.524Z,101346.81
2022-11-02T12:54:12.457Z,101350.03
2022-11-02T12:56:47.069Z,101345.41
2022-11-02T12:59:20.847Z,101318.81
2022-11-02T13:01:52.862Z,101350.03
2022-11-02T13:04:28.119Z,101344.56
2022-11-02T13:07:04.330Z,101313.63
2022-11-02T13:09:37.855Z,101336.44
2022-11-02T13:12:12.685Z,101346.66
2022-11-02T13:14:43.001Z,101331.69
2022-11-02T13:17:16.181Z,101332.06
2022-11-02T13:19:48.402Z,101277.34
2022-11-02T13:22:19.218Z,101321.34
2022-11-02T13:24:52.451Z,101324.56
2022-11-02T13:27:36.493Z,101326.00
2022-11-02T13:30:07.632Z,101322.75
2022-11-02T13:32:41.842Z,101333.44
2022-11-02T13:35:18.339Z,101319.19
2022-11-02T13:37:50.584Z,101334.28
2022-11-02T13:40:26.468Z,101310.41
2022-11-02T13:43:26.098Z,101310.69
2022-11-02T13:46:26.346Z,101311.00
2022-11-02T13:49:02.358Z,101304.84
2022-11-02T13:51:37.566Z,101301.22
2022-11-02T13:54:12.770Z,101310.50
2022-11-02T13:56:42.916Z,101304.75
2022-11-02T13:59:19.014Z,101294.00
2022-11-02T14:01:47.653Z,101298.22
2022-11-02T14:04:17.023Z,101305.19
2022-11-02T14:06:49.760Z,101294.56
2022-11-02T14:09:35.573Z,101297.94
2022-11-02T14:12:26.225Z,101288.13
2022-11-02T14:15:31.266Z,101298.91
2022-11-02T14:18:08.853Z,101299.03
2022-11-02T14:20:38.535Z,101298.50
2022-11-02T14:23:34.726Z,101298.50
2022-11-02T14:26:02.527Z,101294.28
2022-11-02T14:28:42.681Z,101295.72
2022-11-02T14:31:40.363Z,101288.72
2022-11-02T14:34:26.066Z,101282.69
2022-11-02T14:37:07.658Z,101293.72
2022-11-02T14:39:44.283Z,101287.44
2022-11-02T14:42:30.655Z,101282.56
2022-11-02T14:45:36.371Z,101273.59
2022-11-02T14:48:07.178Z,101271.34
2022-11-02T14:50:35.226Z,101281.16
2022-11-02T14:53:07.650Z,101273.03
2022-11-02T14:55:38.206Z,101269.66
2022-11-02T14:58:11.190Z,101270.66
2022-11-02T15:00:58.242Z,101267.28
2022-11-02T15:03:38.629Z,101256.94
2022-11-02T15:06:08.982Z,101252.91
2022-11-02T15:08:49.156Z,101246.19
2022-11-02T15:11:46.359Z,101252.47
2022-11-02T15:14:52.669Z,101248.84
2022-11-02T15:17:53.942Z,101246.19
2022-11-02T15:20:28.392Z,101248.13
2022-11-02T15:23:07.492Z,101241.97
2022-11-02T15:25:41.334Z,101221.25
2022-11-02T15:28:14.399Z,101231.34
2022-11-02T15:30:45.745Z,101229.94
2022-11-02T15:33:20.939Z,101221.94
2022-11-02T15:35:52.545Z,101213.16
2022-11-02T15:38:32.596Z,101208.41
2022-11-02T15:41:14.099Z,101227.56
2022-11-02T15:44:08.931Z,101235.94
2022-11-02T15:46:47.820Z,101237.63
2022-11-02T15:49:32.810Z,101229.66
2022-11-02T15:52:10.894Z,101239.44
2022-11-02T15:54:52.104Z,101240.03
2022-11-02T15:57:30.189Z,101239.75
2022-11-02T16:00:17.078Z,101238.06
2022-11-02T16:02:48.356Z,101234.69
2022-11-02T16:05:25.512Z,101228.81
2022-11-02T16:08:11.495Z,101235.94
2022-11-02T16:10:42.371Z,101242.38
2022-11-02T16:13:16.863Z,101238.50
2022-11-02T16:15:45.376Z,101242.81
2022-11-02T16:18:29.343Z,101239.03
2022-11-02T16:21:02.158Z,101236.38
2022-11-02T16:23:32.664Z,101224.78
2022-11-02T16:26:02.346Z,101223.09
2022-11-02T16:28:32.000Z,101212.03
2022-11-02T16:31:03.342Z,101226.28
2022-11-02T16:33:38.630Z,101225.75
2022-11-02T16:36:08.652Z,101228.56
2022-11-02T16:38:43.614Z,101227.41
2022-11-02T16:41:11.600Z,101230.78
2022-11-02T16:43:46.117Z,101237.19
2022-11-02T16:46:17.888Z,101223.75
2022-11-02T16:49:16.268Z,101240.84
2022-11-02T16:51:51.362Z,101248.94
2022-11-02T16:54:41.179Z,101243.34
2022-11-02T16:57:16.904Z,101245.31
2022-11-02T16:59:52.242Z,101249.63
2022-11-02T17:02:25.981Z,101244.59
2022-11-02T17:05:02.601Z,101242.91
2022-11-02T17:07:43.831Z,101238.31
2022-11-02T17:10:21.340Z,101237.59
2022-11-02T17:13:21.468Z,101248.22
2022-11-02T17:15:51.290Z,101234.09
2022-11-02T17:18:29.004Z,101230.41
2022-11-02T17:21:26.214Z,101242.19
2022-11-02T17:23:56.470Z,101231.25
2022-11-02T17:26:30.858Z,101231.53
2022-11-02T17:29:03.363Z,101236.00
2022-11-02T17:31:35.985Z,101244.81
2022-11-02T17:34:10.446Z,101240.47
2022-11-02T17:36:42.675Z,101241.31
2022-11-02T17:39:14.888Z,101230.94
2022-11-02T17:42:01.010Z,101238.78
2022-11-02T17:44:28.735Z,101238.53
2022-11-02T17:46:56.525Z,101237.94
2022-11-02T17:49:24.264Z,101235.16
2022-11-02T17:51:52.039Z,101225.63
2022-11-02T17:54:21.104Z,101239.34
2022-11-02T17:56:48.822Z,101233.31
2022-11-02T17:59:16.566Z,101230.66
2022-11-02T18:01:44.547Z,101230.22
2022-11-02T18:04:13.424Z,101235.72
2022-11-02T18:06:41.230Z,101236.81
2022-11-02T18:09:13.788Z,101232.44
2022-11-02T18:11:42.954Z,101213.56
2022-11-02T18:14:15.691Z,101223.69
2022-11-02T18:16:43.853Z,101227.56
2022-11-02T18:19:11.604Z,101223.94
2022-11-02T18:21:39.294Z,101218.63
2022-11-02T18:24:07.706Z,101215.25
2022-11-02T18:26:36.081Z,101205.38
2022-11-02T18:29:05.666Z,101215.53
2022-11-02T18:31:35.816Z,101205.44
2022-11-02T18:34:04.060Z,101208.63
2022-11-02T18:36:31.833Z,101207.06
2022-11-02T18:38:59.712Z,101183.44
2022-11-02T18:41:30.943Z,101198.97
2022-11-02T18:44:04.646Z,101205.13
2022-11-02T18:46:37.207Z,101197.47
2022-11-02T18:49:06.644Z,101180.25
2022-11-02T18:51:35.118Z,101196.63
2022-11-02T18:54:04.685Z,101188.34
2022-11-02T18:56:32.453Z,101195.06
2022-11-02T18:59:00.596Z,101171.44
2022-11-02T19:01:28.935Z,101190.41
2022-11-02T19:04:00.108Z,101188.03
2022-11-02T19:06:47.218Z,101188.31
2022-11-02T19:09:23.345Z,101186.44
2022-11-02T19:11:54.513Z,101179.03
2022-11-02T19:14:23.317Z,101178.72
2022-11-02T19:16:51.375Z,101180.78
2022-11-02T19:19:20.649Z,101186.78
2022-11-02T19:21:48.663Z,101188.88
2022-11-02T19:24:16.349Z,101175.31
2022-11-02T19:26:44.044Z,101180.88
2022-11-02T19:29:11.758Z,101174.69
2022-11-02T19:31:39.691Z,101171.19
2022-11-02T19:34:07.636Z,101164.91
2022-11-02T19:36:37.460Z,101175.19
2022-11-02T19:39:07.080Z,101150.38
2022-11-02T19:41:34.957Z,101162.69
2022-11-02T19:44:02.706Z,101162.81
2022-11-02T19:46:30.501Z,101150.53
2022-11-02T19:48:58.247Z,101147.34
2022-11-02T19:51:28.273Z,101142.41
2022-11-02T19:53:59.321Z,101134.72
2022-11-02T19:56:28.704Z,101135.44
2022-11-02T19:58:57.084Z,101134.97
2022-11-02T20:01:26.464Z,101122.28
2022-11-02T20:03:55.372Z,101127.19
2022-11-02T20:06:26.431Z,101122.16
2022-11-02T20:08:56.001Z,101117.09
2022-11-02T20:11:28.451Z,101118.19
2022-11-02T20:13:58.042Z,101114.78
2022-11-02T20:16:26.265Z,101112.00
2022-11-02T20:18:55.288Z,101081.50
2022-11-02T20:21:29.843Z,101111.88
2022-11-02T20:24:00.704Z,101111.28
2022-11-02T20:26:32.055Z,101108.06
2022-11-02T20:29:01.237Z,101101.91
2022-11-02T20:31:30.162Z,101105.66
2022-11-02T20:33:59.093Z,101100.63
2022-11-02T20:36:27.765Z,101083.69
2022-11-02T20:38:56.250Z,101096.28
2022-11-02T20:41:25.098Z,101096.41
2022-11-02T20:43:55.768Z,101098.22
2022-11-02T20:46:42.315Z,101092.34
2022-11-02T20:49:22.116Z,101092.59
2022-11-02T20:51:57.199Z,101093.31
2022-11-02T20:54:26.126Z,101076.69
2022-11-02T20:56:53.889Z,101085.63
2022-11-02T20:59:23.024Z,101077.41
2022-11-02T21:01:50.871Z,101076.69
2022-11-02T21:04:21.342Z,101077.41
2022-11-02T21:06:50.224Z,101069.09
2022-11-02T21:09:18.266Z,101063.66
2022-11-02T21:12:03.755Z,101061.69
2022-11-02T21:14:32.920Z,101058.63
2022-11-02T21:17:02.531Z,101053.91
2022-11-02T21:19:30.306Z,101050.16
2022-11-02T21:21:59.989Z,101049.84
2022-11-02T21:24:28.586Z,101049.19
2022-11-02T21:26:56.679Z,101047.63
2022-11-02T21:29:24.659Z,101050.88
2022-11-02T21:31:54.014Z,101042.22
2022-11-02T21:34:21.810Z,101041.97
2022-11-02T21:36:49.542Z,101048.94
2022-11-02T21:39:17.606Z,101046.88
2022-11-02T21:41:45.315Z,101047.47
2022-11-02T21:44:13.078Z,101048.56
2022-11-02T21:46:40.821Z,101039.50
2022-11-02T21:49:10.103Z,101043.91
2022-11-02T21:51:38.462Z,101043.63
2022-11-02T21:54:06.315Z,101031.38
2022-11-02T21:56:35.896Z,101036.66
2022-11-02T21:59:05.193Z,101035.31
2022-11-02T22:01:48.140Z,101023.59
2022-11-02T22:04:21.552Z,101026.38
2022-11-02T22:06:50.506Z,101021.66
2022-11-02T22:09:18.440Z,101018.31
2022-11-02T22:11:46.210Z,101014.41
2022-11-02T22:14:13.360Z,101016.09
2022-11-02T22:16:42.811Z,101020.97
2022-11-02T22:19:12.283Z,101002.94
2022-11-02T22:21:44.057Z,101021.66
2022-11-02T22:24:12.538Z,101020.25
2022-11-02T22:26:41.497Z,101009.66
2022-11-02T22:29:09.949Z,101008.69
2022-11-02T22:31:39.418Z,101002.41
2022-11-02T22:34:09.044Z,100997.97
2022-11-02T22:36:38.222Z,101007.59
2022-11-02T22:39:08.248Z,100993.63
2022-11-02T22:41:37.473Z,100999.31
2022-11-02T22:44:07.293Z,100990.28
2022-11-02T22:46:37.614Z,100982.44
2022-11-02T22:49:06.061Z,100976.31
2022-11-02T22:51:35.351Z,100962.03
2022-11-02T22:54:04.396Z,100977.03
2022-11-02T22:56:34.423Z,100960.28
2022-11-02T22:59:02.575Z,100933.16
2022-11-02T23:01:31.718Z,100964.34
2022-11-02T23:04:01.093Z,100961.00
2022-11-02T23:06:29.327Z,100954.72
2022-11-02T23:08:58.632Z,100956.66
2022-11-02T23:11:30.624Z,100950.66
2022-11-02T23:14:01.097Z,100955.00
2022-11-02T23:16:31.059Z,100949.13
2022-11-02T23:19:28.264Z,100947.78
2022-11-02T23:22:15.228Z,100936.78
2022-11-02T23:25:02.374Z,100925.28
2022-11-02T23:27:30.872Z,100921.16
2022-11-02T23:30:31.883Z,100913.91
2022-11-02T23:32:59.602Z,100922.56
2022-11-02T23:35:45.099Z,100915.59
2022-11-02T23:38:12.843Z,100889.91
2022-11-02T23:40:40.557Z,100904.41
2022-11-02T23:43:08.715Z,100900.22
2022-11-02T23:45:37.892Z,100896.00
2022-11-02T23:48:06.918Z,100900.06
2022-11-02T23:51:07.154Z,100901.31
2022-11-02T23:53:52.478Z,100905.50
2022-11-02T23:56:38.028Z,100910.25
2022-11-02T23:59:08.703Z,100901.88
